KLM22P EDDH-EHAM
Flight info
| Callsign | KLM22P |
|---|---|
| Flight time | N/A |
| Altitude | 26000 |
| Route | WSN5G/33 WSN N125 BLUFA |
| Aircraft | A321/M-SDE3FGHIRWY/LB1 |
Departure
| Time | 2026-05-05 13:43 |
|---|---|
| Airport | Hamburg Helmut Schmidt Airport (EDDH) |
Arrival
| Time | N/A |
|---|---|
| Airport | Amsterdam Airport Schiphol (EHAM) |
| Time | Latitude | Longitude | Altitude | Speed | Heading |
|---|---|---|---|---|---|
| 2026-05-05 13:01 | 53.63372 | 10.00336 | 49 ft | 0 kts | 86° |
| 2026-05-05 13:31 | 53.63372 | 10.00335 | 48 ft | 1 kts | 86° |
| 2026-05-05 13:31 | 53.63371 | 10.00296 | 65 ft | 3 kts | 86° |
| 2026-05-05 13:31 | 53.63371 | 10.00260 | 40 ft | 4 kts | 111° |
| 2026-05-05 13:31 | 53.63386 | 10.00229 | 44 ft | 4 kts | 161° |
| 2026-05-05 13:32 | 53.63396 | 10.00225 | 45 ft | 0 kts | 175° |
| 2026-05-05 13:35 | 53.63394 | 10.00225 | 45 ft | 2 kts | 175° |
| 2026-05-05 13:35 | 53.63357 | 10.00228 | 47 ft | 7 kts | 177° |
| 2026-05-05 13:35 | 53.63315 | 10.00232 | 48 ft | 5 kts | 176° |
| 2026-05-05 13:35 | 53.63284 | 10.00240 | 48 ft | 4 kts | 172° |
| 2026-05-05 13:36 | 53.63255 | 10.00246 | 48 ft | 8 kts | 173° |
| 2026-05-05 13:36 | 53.63163 | 10.00258 | 46 ft | 14 kts | 177° |
| 2026-05-05 13:36 | 53.63073 | 10.00260 | 48 ft | 12 kts | 192° |
| 2026-05-05 13:36 | 53.63004 | 10.00195 | 48 ft | 11 kts | 214° |
| 2026-05-05 13:37 | 53.62949 | 10.00133 | 48 ft | 9 kts | 212° |
| 2026-05-05 13:37 | 53.62900 | 10.00083 | 47 ft | 7 kts | 211° |
| 2026-05-05 13:37 | 53.62891 | 10.00073 | 48 ft | 0 kts | 213° |
| 2026-05-05 13:37 | 53.62876 | 10.00052 | 47 ft | 5 kts | 225° |
| 2026-05-05 13:38 | 53.62859 | 10.00009 | 48 ft | 4 kts | 240° |
| 2026-05-05 13:38 | 53.62846 | 9.99969 | 48 ft | 4 kts | 242° |
| 2026-05-05 13:38 | 53.62844 | 9.99961 | 48 ft | 0 kts | 242° |
| 2026-05-05 13:40 | 53.62840 | 9.99949 | 47 ft | 6 kts | 242° |
| 2026-05-05 13:40 | 53.62814 | 9.99819 | 45 ft | 14 kts | 279° |
| 2026-05-05 13:40 | 53.62876 | 9.99735 | 45 ft | 8 kts | 333° |
| 2026-05-05 13:41 | 53.62881 | 9.99732 | 45 ft | 0 kts | 332° |
| 2026-05-05 13:42 | 53.62904 | 9.99711 | 45 ft | 20 kts | 333° |
| 2026-05-05 13:42 | 53.63254 | 9.99415 | 47 ft | 89 kts | 333° |
| 2026-05-05 13:42 | 53.63967 | 9.98795 | 51 ft | 139 kts | 333° |
| 2026-05-05 13:42 | 53.64946 | 9.97960 | 149 ft | 168 kts | 338° |
| 2026-05-05 13:43 | 53.65934 | 9.97081 | 810 ft | 158 kts | 334° |
| 2026-05-05 13:43 | 53.66909 | 9.96168 | 1329 ft | 161 kts | 333° |
| 2026-05-05 13:43 | 53.67921 | 9.95223 | 1652 ft | 175 kts | 334° |
| 2026-05-05 13:43 | 53.69033 | 9.94195 | 1940 ft | 188 kts | 334° |
| 2026-05-05 13:44 | 53.70200 | 9.93125 | 2242 ft | 199 kts | 334° |
| 2026-05-05 13:44 | 53.71351 | 9.91640 | 2619 ft | 212 kts | 309° |
| 2026-05-05 13:44 | 53.71838 | 9.89299 | 3099 ft | 221 kts | 272° |
| 2026-05-05 13:44 | 53.71428 | 9.86709 | 3331 ft | 248 kts | 239° |
| 2026-05-05 13:45 | 53.70480 | 9.84124 | 3765 ft | 266 kts | 242° |
| 2026-05-05 13:45 | 53.69789 | 9.81183 | 4400 ft | 274 kts | 253° |
| 2026-05-05 13:45 | 53.69173 | 9.78174 | 5373 ft | 269 kts | 250° |
| 2026-05-05 13:45 | 53.68518 | 9.75235 | 6316 ft | 266 kts | 250° |
| 2026-05-05 13:46 | 53.67883 | 9.72327 | 7212 ft | 263 kts | 251° |
| 2026-05-05 13:46 | 53.67330 | 9.69393 | 8005 ft | 264 kts | 254° |
| 2026-05-05 13:46 | 53.66805 | 9.66374 | 8635 ft | 271 kts | 253° |
| 2026-05-05 13:46 | 53.66254 | 9.63313 | 9357 ft | 274 kts | 252° |
| 2026-05-05 13:47 | 53.65676 | 9.60216 | 9821 ft | 278 kts | 252° |
| 2026-05-05 13:47 | 53.65228 | 9.58200 | 9905 ft | 278 kts | 244° |
| 2026-05-05 13:47 | 53.63799 | 9.54496 | 9939 ft | 291 kts | 235° |
| 2026-05-05 13:47 | 53.62614 | 9.51732 | 9945 ft | 299 kts | 235° |
| 2026-05-05 13:48 | 53.61412 | 9.48938 | 9929 ft | 295 kts | 234° |
| 2026-05-05 13:48 | 53.60168 | 9.46051 | 9931 ft | 304 kts | 234° |
| 2026-05-05 13:48 | 53.58906 | 9.43126 | 9935 ft | 313 kts | 234° |
| 2026-05-05 13:48 | 53.57628 | 9.40164 | 9939 ft | 319 kts | 234° |
| 2026-05-05 13:49 | 53.56335 | 9.37171 | 9935 ft | 321 kts | 234° |
| 2026-05-05 13:49 | 53.55468 | 9.35161 | 9922 ft | 316 kts | 234° |
| 2026-05-05 13:49 | 53.53734 | 9.31142 | 10152 ft | 330 kts | 234° |
| 2026-05-05 13:49 | 53.52355 | 9.27944 | 10514 ft | 343 kts | 234° |
| 2026-05-05 13:50 | 53.50942 | 9.24673 | 11091 ft | 348 kts | 234° |
| 2026-05-05 13:50 | 53.49511 | 9.21366 | 11727 ft | 352 kts | 234° |